sensor_id;sensor_type;location;lat;lon;timestamp;pressure;altitude;pressure_sealevel;temperature;humidity
24858;BME280;12935;50.782;6.074;2022-07-12T00:01:30;100332.56;;;16.12;100.00
24858;BME280;12935;50.782;6.074;2022-07-12T00:03:56;100336.03;;;16.20;100.00
24858;BME280;12935;50.782;6.074;2022-07-12T00:06:21;100326.28;;;16.08;100.00
24858;BME280;12935;50.782;6.074;2022-07-12T00:08:47;100338.94;;;16.05;100.00
24858;BME280;12935;50.782;6.074;2022-07-12T00:11:12;100338.97;;;16.02;100.00
24858;BME280;12935;50.782;6.074;2022-07-12T00:13:38;100338.66;;;15.93;100.00
24858;BME280;12935;50.782;6.074;2022-07-12T00:16:03;100344.94;;;15.97;100.00
24858;BME280;12935;50.782;6.074;2022-07-12T00:18:29;100341.34;;;16.00;100.00
24858;BME280;12935;50.782;6.074;2022-07-12T00:20:54;100343.69;;;16.05;100.00
24858;BME280;12935;50.782;6.074;2022-07-12T00:23:19;100332.38;;;15.92;100.00
24858;BME280;12935;50.782;6.074;2022-07-12T00:25:44;100339.53;;;15.86;100.00
24858;BME280;12935;50.782;6.074;2022-07-12T00:28:10;100343.44;;;15.89;100.00
24858;BME280;12935;50.782;6.074;2022-07-12T00:30:35;100336.78;;;15.86;100.00
24858;BME280;12935;50.782;6.074;2022-07-12T00:33:00;100338.41;;;15.80;100.00
24858;BME280;12935;50.782;6.074;2022-07-12T00:35:26;100346.22;;;15.85;100.00
24858;BME280;12935;50.782;6.074;2022-07-12T00:37:51;100344.28;;;15.82;100.00
24858;BME280;12935;50.782;6.074;2022-07-12T00:40:17;100339.94;;;15.85;100.00
24858;BME280;12935;50.782;6.074;2022-07-12T00:42:43;100335.63;;;15.84;100.00
24858;BME280;12935;50.782;6.074;2022-07-12T00:45:08;100327.34;;;15.84;100.00
24858;BME280;12935;50.782;6.074;2022-07-12T00:47:39;100315.91;;;15.85;100.00
24858;BME280;12935;50.782;6.074;2022-07-12T00:50:11;100305.31;;;15.84;100.00
24858;BME280;12935;50.782;6.074;2022-07-12T00:52:38;100298.28;;;15.75;100.00
24858;BME280;12935;50.782;6.074;2022-07-12T00:55:07;100302.19;;;15.78;100.00
24858;BME280;12935;50.782;6.074;2022-07-12T00:57:33;100298.63;;;15.81;100.00
24858;BME280;12935;50.782;6.074;2022-07-12T00:59:59;100302.19;;;15.78;100.00
24858;BME280;12935;50.782;6.074;2022-07-12T01:02:25;100293.56;;;15.76;100.00
24858;BME280;12935;50.782;6.074;2022-07-12T01:04:51;100292.75;;;15.79;100.00
24858;BME280;12935;50.782;6.074;2022-07-12T01:07:16;100295.09;;;15.81;100.00
24858;BME280;12935;50.782;6.074;2022-07-12T01:09:43;100288.81;;;15.76;100.00
24858;BME280;12935;50.782;6.074;2022-07-12T01:12:09;100295.09;;;15.81;100.00
24858;BME280;12935;50.782;6.074;2022-07-12T01:14:35;100290.06;;;15.72;100.00
24858;BME280;12935;50.782;6.074;2022-07-12T01:17:01;100292.44;;;15.70;100.00
24858;BME280;12935;50.782;6.074;2022-07-12T01:19:27;100296.81;;;15.67;100.00
24858;BME280;12935;50.782;6.074;2022-07-12T01:21:53;100292.91;;;15.61;100.00
24858;BME280;12935;50.782;6.074;2022-07-12T01:24:20;100298.09;;;15.52;100.00
24858;BME280;12935;50.782;6.074;2022-07-12T01:26:46;100300.44;;;15.57;100.00
24858;BME280;12935;50.782;6.074;2022-07-12T01:29:13;100307.16;;;15.56;100.00
24858;BME280;12935;50.782;6.074;2022-07-12T01:31:39;100298.13;;;15.49;100.00
24858;BME280;12935;50.782;6.074;2022-07-12T01:34:05;100298.94;;;15.45;100.00
24858;BME280;12935;50.782;6.074;2022-07-12T01:36:32;100293.81;;;15.44;100.00
24858;BME280;12935;50.782;6.074;2022-07-12T01:38:57;100293.41;;;15.45;100.00
24858;BME280;12935;50.782;6.074;2022-07-12T01:41:23;100295.84;;;15.40;100.00
24858;BME280;12935;50.782;6.074;2022-07-12T01:43:50;100300.59;;;15.36;100.00
24858;BME280;12935;50.782;6.074;2022-07-12T01:46:15;100297.09;;;15.28;100.00
24858;BME280;12935;50.782;6.074;2022-07-12T01:48:40;100299.50;;;15.26;100.00
24858;BME280;12935;50.782;6.074;2022-07-12T01:51:06;100310.03;;;15.35;100.00
24858;BME280;12935;50.782;6.074;2022-07-12T01:53:31;100312.03;;;15.31;100.00
24858;BME280;12935;50.782;6.074;2022-07-12T01:55:56;100305.44;;;15.21;100.00
24858;BME280;12935;50.782;6.074;2022-07-12T01:58:22;100306.25;;;15.18;100.00
24858;BME280;12935;50.782;6.074;2022-07-12T02:00:48;100309.81;;;15.12;100.00
24858;BME280;12935;50.782;6.074;2022-07-12T02:03:20;100307.50;;;15.10;100.00
24858;BME280;12935;50.782;6.074;2022-07-12T02:05:45;100304.38;;;15.04;100.00
24858;BME280;12935;50.782;6.074;2022-07-12T02:08:12;100303.56;;;15.07;100.00
24858;BME280;12935;50.782;6.074;2022-07-12T02:10:37;100297.66;;;15.09;100.00
24858;BME280;12935;50.782;6.074;2022-07-12T02:13:03;100303.53;;;15.11;100.00
24858;BME280;12935;50.782;6.074;2022-07-12T02:15:29;100301.53;;;15.15;100.00
24858;BME280;12935;50.782;6.074;2022-07-12T02:17:54;100309.78;;;15.19;100.00
24858;BME280;12935;50.782;6.074;2022-07-12T02:20:19;100311.75;;;15.18;100.00
24858;BME280;12935;50.782;6.074;2022-07-12T02:22:45;100310.97;;;15.18;100.00
24858;BME280;12935;50.782;6.074;2022-07-12T02:25:10;100300.38;;;15.13;100.00
24858;BME280;12935;50.782;6.074;2022-07-12T02:27:35;100311.78;;;15.11;100.00
24858;BME280;12935;50.782;6.074;2022-07-12T02:30:03;100305.56;;;15.03;100.00
24858;BME280;12935;50.782;6.074;2022-07-12T02:32:28;100311.09;;;15.00;100.00
24858;BME280;12935;50.782;6.074;2022-07-12T02:34:53;100308.41;;;14.93;100.00
24858;BME280;12935;50.782;6.074;2022-07-12T02:37:19;100305.25;;;14.91;100.00
24858;BME280;12935;50.782;6.074;2022-07-12T02:39:44;100311.09;;;14.96;100.00
24858;BME280;12935;50.782;6.074;2022-07-12T02:42:09;100312.28;;;14.99;100.00
24858;BME280;12935;50.782;6.074;2022-07-12T02:44:34;100301.25;;;14.99;100.00
24858;BME280;12935;50.782;6.074;2022-07-12T02:47:00;100310.78;;;14.91;100.00
24858;BME280;12935;50.782;6.074;2022-07-12T02:49:25;100310.78;;;14.87;100.00
24858;BME280;12935;50.782;6.074;2022-07-12T02:51:50;100311.16;;;14.89;100.00
24858;BME280;12935;50.782;6.074;2022-07-12T02:54:16;100311.16;;;14.89;100.00
24858;BME280;12935;50.782;6.074;2022-07-12T02:56:41;100322.16;;;14.93;100.00
24858;BME280;12935;50.782;6.074;2022-07-12T02:59:06;100316.66;;;14.89;100.00
24858;BME280;12935;50.782;6.074;2022-07-12T03:01:31;100316.69;;;14.82;100.00
24858;BME280;12935;50.782;6.074;2022-07-12T03:03:57;100326.97;;;14.78;100.00
24858;BME280;12935;50.782;6.074;2022-07-12T03:06:22;100321.47;;;14.78;100.00
24858;BME280;12935;50.782;6.074;2022-07-12T03:08:47;100308.13;;;14.69;100.00
24858;BME280;12935;50.782;6.074;2022-07-12T03:11:13;100314.03;;;14.68;100.00
24858;BME280;12935;50.782;6.074;2022-07-12T03:13:38;100309.72;;;14.67;100.00
24858;BME280;12935;50.782;6.074;2022-07-12T03:16:04;100318.00;;;14.63;100.00
24858;BME280;12935;50.782;6.074;2022-07-12T03:18:29;100316.06;;;14.60;100.00
24858;BME280;12935;50.782;6.074;2022-07-12T03:20:56;100318.03;;;14.56;100.00
24858;BME280;12935;50.782;6.074;2022-07-12T03:23:21;100321.56;;;14.57;100.00
24858;BME280;12935;50.782;6.074;2022-07-12T03:25:46;100310.97;;;14.48;100.00
24858;BME280;12935;50.782;6.074;2022-07-12T03:28:12;100307.09;;;14.46;100.00
24858;BME280;12935;50.782;6.074;2022-07-12T03:30:37;100310.63;;;14.46;100.00
24858;BME280;12935;50.782;6.074;2022-07-12T03:33:02;100311.41;;;14.39;100.00
24858;BME280;12935;50.782;6.074;2022-07-12T03:35:28;100314.19;;;14.29;100.00
24858;BME280;12935;50.782;6.074;2022-07-12T03:37:53;100309.09;;;14.31;100.00
24858;BME280;12935;50.782;6.074;2022-07-12T03:40:20;100316.56;;;14.30;100.00
24858;BME280;12935;50.782;6.074;2022-07-12T03:42:46;100317.72;;;14.29;100.00
24858;BME280;12935;50.782;6.074;2022-07-12T03:45:13;100328.75;;;14.26;100.00
24858;BME280;12935;50.782;6.074;2022-07-12T03:47:39;100321.28;;;14.26;100.00
24858;BME280;12935;50.782;6.074;2022-07-12T03:50:07;100324.41;;;14.32;100.00
24858;BME280;12935;50.782;6.074;2022-07-12T03:52:33;100331.03;;;14.34;100.00
24858;BME280;12935;50.782;6.074;2022-07-12T03:54:59;100333.78;;;14.34;100.00
24858;BME280;12935;50.782;6.074;2022-07-12T03:57:24;100330.66;;;14.36;100.00
24858;BME280;12935;50.782;6.074;2022-07-12T03:59:51;100334.19;;;14.36;100.00
24858;BME280;12935;50.782;6.074;2022-07-12T04:02:17;100332.63;;;14.35;100.00
24858;BME280;12935;50.782;6.074;2022-07-12T04:04:42;100327.94;;;14.29;100.00
24858;BME280;12935;50.782;6.074;2022-07-12T04:07:08;100338.56;;;14.27;100.00
24858;BME280;12935;50.782;6.074;2022-07-12T04:09:33;100325.22;;;14.22;100.00
24858;BME280;12935;50.782;6.074;2022-07-12T04:11:58;100335.41;;;14.28;100.00
24858;BME280;12935;50.782;6.074;2022-07-12T04:14:24;100329.91;;;14.25;100.00
24858;BME280;12935;50.782;6.074;2022-07-12T04:16:49;100331.09;;;14.17;100.00
24858;BME280;12935;50.782;6.074;2022-07-12T04:19:14;100338.56;;;14.20;100.00
24858;BME280;12935;50.782;6.074;2022-07-12T04:21:40;100349.94;;;14.22;100.00
24858;BME280;12935;50.782;6.074;2022-07-12T04:24:05;100344.84;;;14.27;100.00
24858;BME280;12935;50.782;6.074;2022-07-12T04:26:31;100335.00;;;14.30;100.00
24858;BME280;12935;50.782;6.074;2022-07-12T04:28:57;100340.84;;;14.39;100.00
24858;BME280;12935;50.782;6.074;2022-07-12T04:31:23;100349.13;;;14.35;100.00
24858;BME280;12935;50.782;6.074;2022-07-12T04:33:48;100351.13;;;14.31;100.00
24858;BME280;12935;50.782;6.074;2022-07-12T04:36:14;100357.78;;;14.30;100.00
24858;BME280;12935;50.782;6.074;2022-07-12T04:38:39;100353.81;;;14.35;100.00
24858;BME280;12935;50.782;6.074;2022-07-12T04:41:04;100349.09;;;14.39;100.00
24858;BME280;12935;50.782;6.074;2022-07-12T04:43:30;100350.66;;;14.54;100.00
24858;BME280;12935;50.782;6.074;2022-07-12T04:45:55;100342.00;;;14.59;100.00
24858;BME280;12935;50.782;6.074;2022-07-12T04:48:20;100340.75;;;14.71;100.00
24858;BME280;12935;50.782;6.074;2022-07-12T04:50:46;100339.56;;;14.76;100.00
24858;BME280;12935;50.782;6.074;2022-07-12T04:53:11;100333.59;;;14.81;100.00
24858;BME280;12935;50.782;6.074;2022-07-12T04:55:37;100336.31;;;14.91;100.00
24858;BME280;12935;50.782;6.074;2022-07-12T04:58:02;100326.47;;;14.94;100.00
24858;BME280;12935;50.782;6.074;2022-07-12T05:00:29;100322.94;;;14.93;100.00
24858;BME280;12935;50.782;6.074;2022-07-12T05:02:55;100337.03;;;15.02;100.00
24858;BME280;12935;50.782;6.074;2022-07-12T05:05:20;100331.50;;;15.06;100.00
24858;BME280;12935;50.782;6.074;2022-07-12T05:07:45;100330.66;;;15.13;100.00
24858;BME280;12935;50.782;6.074;2022-07-12T05:10:11;100328.28;;;15.15;100.00
24858;BME280;12935;50.782;6.074;2022-07-12T05:12:37;100343.13;;;15.31;100.00
24858;BME280;12935;50.782;6.074;2022-07-12T05:15:06;100338.75;;;15.37;100.00
24858;BME280;12935;50.782;6.074;2022-07-12T05:17:32;100337.94;;;15.40;100.00
24858;BME280;12935;50.782;6.074;2022-07-12T05:19:58;100339.06;;;15.47;100.00
24858;BME280;12935;50.782;6.074;2022-07-12T05:22:23;100339.41;;;15.56;100.00
24858;BME280;12935;50.782;6.074;2022-07-12T05:24:48;100336.22;;;15.61;100.00
24858;BME280;12935;50.782;6.074;2022-07-12T05:27:14;100338.22;;;15.57;100.00
24858;BME280;12935;50.782;6.074;2022-07-12T05:29:40;100349.91;;;15.71;100.00
24858;BME280;12935;50.782;6.074;2022-07-12T05:32:05;100351.81;;;15.78;100.00
24858;BME280;12935;50.782;6.074;2022-07-12T05:34:31;100356.78;;;15.90;100.00
24858;BME280;12935;50.782;6.074;2022-07-12T05:36:56;100357.16;;;15.92;100.00
24858;BME280;12935;50.782;6.074;2022-07-12T05:39:21;100366.94;;;16.00;100.00
24858;BME280;12935;50.782;6.074;2022-07-12T05:41:47;100365.25;;;16.13;100.00
24858;BME280;12935;50.782;6.074;2022-07-12T05:44:12;100354.19;;;16.17;100.00
24858;BME280;12935;50.782;6.074;2022-07-12T05:46:38;100352.81;;;16.32;100.00
24858;BME280;12935;50.782;6.074;2022-07-12T05:49:05;100352.66;;;16.46;100.00
24858;BME280;12935;50.782;6.074;2022-07-12T05:51:31;100341.44;;;16.61;100.00
24858;BME280;12935;50.782;6.074;2022-07-12T05:54:15;100345.16;;;16.81;100.00
24858;BME280;12935;50.782;6.074;2022-07-12T05:56:40;100352.84;;;16.93;100.00
24858;BME280;12935;50.782;6.074;2022-07-12T05:59:05;100349.53;;;17.05;100.00
24858;BME280;12935;50.782;6.074;2022-07-12T06:01:30;100351.00;;;17.13;100.00
24858;BME280;12935;50.782;6.074;2022-07-12T06:03:56;100351.47;;;17.32;100.00
24858;BME280;12935;50.782;6.074;2022-07-12T06:06:21;100353.69;;;17.44;100.00
24858;BME280;12935;50.782;6.074;2022-07-12T06:08:46;100354.22;;;17.59;100.00
24858;BME280;12935;50.782;6.074;2022-07-12T06:11:12;100357.72;;;17.63;100.00
24858;BME280;12935;50.782;6.074;2022-07-12T06:13:37;100370.19;;;17.74;100.00
24858;BME280;12935;50.782;6.074;2022-07-12T06:16:02;100372.38;;;17.83;100.00
24858;BME280;12935;50.782;6.074;2022-07-12T06:18:31;100369.50;;;17.90;100.00
24858;BME280;12935;50.782;6.074;2022-07-12T06:20:56;100377.53;;;18.04;100.00
24858;BME280;12935;50.782;6.074;2022-07-12T06:23:21;100379.31;;;18.14;100.00
24858;BME280;12935;50.782;6.074;2022-07-12T06:25:46;100384.69;;;18.25;100.00
24858;BME280;12935;50.782;6.074;2022-07-12T06:28:12;100379.34;;;18.34;100.00
24858;BME280;12935;50.782;6.074;2022-07-12T06:30:37;100382.31;;;18.43;100.00
24858;BME280;12935;50.782;6.074;2022-07-12T06:33:03;100372.25;;;18.53;100.00
24858;BME280;12935;50.782;6.074;2022-07-12T06:35:28;100386.69;;;18.64;100.00
24858;BME280;12935;50.782;6.074;2022-07-12T06:37:53;100387.03;;;18.66;100.00
24858;BME280;12935;50.782;6.074;2022-07-12T06:40:19;100380.38;;;18.64;100.00
24858;BME280;12935;50.782;6.074;2022-07-12T06:42:44;100387.88;;;18.83;100.00
24858;BME280;12935;50.782;6.074;2022-07-12T06:45:10;100388.72;;;19.00;100.00
24858;BME280;12935;50.782;6.074;2022-07-12T06:47:35;100391.59;;;19.12;100.00
24858;BME280;12935;50.782;6.074;2022-07-12T06:50:01;100399.50;;;19.30;100.00
24858;BME280;12935;50.782;6.074;2022-07-12T06:52:27;100407.75;;;19.34;100.00
24858;BME280;12935;50.782;6.074;2022-07-12T06:54:52;100402.78;;;19.41;100.00
24858;BME280;12935;50.782;6.074;2022-07-12T06:57:17;100407.00;;;19.49;100.00
24858;BME280;12935;50.782;6.074;2022-07-12T06:59:42;100403.53;;;19.61;100.00
24858;BME280;12935;50.782;6.074;2022-07-12T07:02:08;100400.06;;;19.74;100.00
24858;BME280;12935;50.782;6.074;2022-07-12T07:04:34;100405.78;;;19.83;100.00
24858;BME280;12935;50.782;6.074;2022-07-12T07:06:59;100399.53;;;19.95;100.00
24858;BME280;12935;50.782;6.074;2022-07-12T07:09:24;100400.38;;;20.08;100.00
24858;BME280;12935;50.782;6.074;2022-07-12T07:11:50;100401.63;;;20.20;100.00
24858;BME280;12935;50.782;6.074;2022-07-12T07:14:16;100405.81;;;20.28;100.00
24858;BME280;12935;50.782;6.074;2022-07-12T07:16:41;100398.41;;;20.38;100.00
24858;BME280;12935;50.782;6.074;2022-07-12T07:19:06;100398.22;;;20.45;100.00
24858;BME280;12935;50.782;6.074;2022-07-12T07:21:31;100411.13;;;20.51;100.00
24858;BME280;12935;50.782;6.074;2022-07-12T07:23:57;100398.59;;;20.59;100.00
24858;BME280;12935;50.782;6.074;2022-07-12T07:26:22;100404.97;;;20.73;100.00
24858;BME280;12935;50.782;6.074;2022-07-12T07:28:48;100402.66;;;20.84;100.00
24858;BME280;12935;50.782;6.074;2022-07-12T07:31:36;100405.78;;;20.98;100.00
24858;BME280;12935;50.782;6.074;2022-07-12T07:34:02;100405.25;;;21.04;100.00
24858;BME280;12935;50.782;6.074;2022-07-12T07:36:27;100405.94;;;21.08;100.00
24858;BME280;12935;50.782;6.074;2022-07-12T07:38:52;100411.59;;;21.17;100.00
24858;BME280;12935;50.782;6.074;2022-07-12T07:41:18;100404.41;;;21.19;100.00
24858;BME280;12935;50.782;6.074;2022-07-12T07:43:43;100405.25;;;21.16;100.00
24858;BME280;12935;50.782;6.074;2022-07-12T07:46:08;100410.75;;;21.20;100.00
24858;BME280;12935;50.782;6.074;2022-07-12T07:48:34;100412.28;;;21.21;100.00
24858;BME280;12935;50.782;6.074;2022-07-12T07:50:59;100424.09;;;21.25;100.00
24858;BME280;12935;50.782;6.074;2022-07-12T07:53:24;100418.28;;;21.32;100.00
24858;BME280;12935;50.782;6.074;2022-07-12T07:55:50;100413.31;;;21.40;100.00
24858;BME280;12935;50.782;6.074;2022-07-12T07:58:16;100415.28;;;21.52;100.00
24858;BME280;12935;50.782;6.074;2022-07-12T08:00:41;100410.84;;;21.54;100.00
24858;BME280;12935;50.782;6.074;2022-07-12T08:03:07;100427.53;;;21.67;100.00
24858;BME280;12935;50.782;6.074;2022-07-12T08:05:33;100421.59;;;21.78;99.04
24858;BME280;12935;50.782;6.074;2022-07-12T08:07:58;100419.03;;;21.83;98.52
24858;BME280;12935;50.782;6.074;2022-07-12T08:10:24;100429.59;;;21.88;96.07
24858;BME280;12935;50.782;6.074;2022-07-12T08:12:50;100431.91;;;21.90;95.91
24858;BME280;12935;50.782;6.074;2022-07-12T08:15:15;100428.47;;;21.98;94.66
24858;BME280;12935;50.782;6.074;2022-07-12T08:17:41;100424.56;;;22.09;93.33
24858;BME280;12935;50.782;6.074;2022-07-12T08:20:06;100424.88;;;22.11;91.10
24858;BME280;12935;50.782;6.074;2022-07-12T08:22:32;100428.53;;;22.20;89.19
24858;BME280;12935;50.782;6.074;2022-07-12T08:24:57;100426.28;;;22.28;86.60
24858;BME280;12935;50.782;6.074;2022-07-12T08:27:23;100418.00;;;22.37;85.77
24858;BME280;12935;50.782;6.074;2022-07-12T08:29:49;100421.19;;;22.48;84.27
24858;BME280;12935;50.782;6.074;2022-07-12T08:32:14;100419.38;;;22.54;81.68
24858;BME280;12935;50.782;6.074;2022-07-12T08:34:40;100423.00;;;22.64;81.65
24858;BME280;12935;50.782;6.074;2022-07-12T08:37:06;100416.59;;;22.76;79.89
24858;BME280;12935;50.782;6.074;2022-07-12T08:39:31;100417.88;;;22.84;78.89
24858;BME280;12935;50.782;6.074;2022-07-12T08:41:56;100413.81;;;22.98;79.62
24858;BME280;12935;50.782;6.074;2022-07-12T08:44:21;100416.44;;;23.01;78.64
24858;BME280;12935;50.782;6.074;2022-07-12T08:46:47;100408.41;;;23.03;76.47
24858;BME280;12935;50.782;6.074;2022-07-12T08:49:12;100414.81;;;23.13;75.17
24858;BME280;12935;50.782;6.074;2022-07-12T08:51:39;100405.44;;;23.29;71.16
24858;BME280;12935;50.782;6.074;2022-07-12T08:54:06;100404.22;;;23.39;69.73
24858;BME280;12935;50.782;6.074;2022-07-12T08:56:34;100404.69;;;23.47;65.80
24858;BME280;12935;50.782;6.074;2022-07-12T08:59:28;100404.31;;;23.57;63.07
24858;BME280;12935;50.782;6.074;2022-07-12T09:01:54;100405.16;;;23.85;65.44
24858;BME280;12935;50.782;6.074;2022-07-12T09:04:24;100402.69;;;24.05;59.98
24858;BME280;12935;50.782;6.074;2022-07-12T09:06:50;100389.66;;;24.21;59.02
24858;BME280;12935;50.782;6.074;2022-07-12T09:11:51;100389.69;;;24.30;60.11
24858;BME280;12935;50.782;6.074;2022-07-12T09:14:20;100386.41;;;24.22;55.45
24858;BME280;12935;50.782;6.074;2022-07-12T09:17:06;100383.00;;;24.18;55.49
24858;BME280;12935;50.782;6.074;2022-07-12T09:19:35;100383.94;;;24.24;55.12
24858;BME280;12935;50.782;6.074;2022-07-12T09:22:02;100388.91;;;24.38;54.15
24858;BME280;12935;50.782;6.074;2022-07-12T09:24:29;100381.59;;;24.50;54.88
24858;BME280;12935;50.782;6.074;2022-07-12T09:27:02;100384.84;;;24.67;53.75
24858;BME280;12935;50.782;6.074;2022-07-12T09:29:28;100386.50;;;24.73;54.22
24858;BME280;12935;50.782;6.074;2022-07-12T09:31:53;100383.53;;;24.95;53.84
24858;BME280;12935;50.782;6.074;2022-07-12T09:34:37;100394.25;;;24.97;55.34
24858;BME280;12935;50.782;6.074;2022-07-12T09:37:23;100394.78;;;25.19;55.48
24858;BME280;12935;50.782;6.074;2022-07-12T09:39:49;100389.81;;;25.23;55.19
24858;BME280;12935;50.782;6.074;2022-07-12T09:42:17;100386.50;;;25.34;56.65
24858;BME280;12935;50.782;6.074;2022-07-12T09:44:43;100395.38;;;25.32;55.14
24858;BME280;12935;50.782;6.074;2022-07-12T09:47:10;100402.72;;;25.53;55.02
24858;BME280;12935;50.782;6.074;2022-07-12T09:49:39;100403.00;;;25.65;51.20
24858;BME280;12935;50.782;6.074;2022-07-12T09:52:06;100399.59;;;25.51;49.32
24858;BME280;12935;50.782;6.074;2022-07-12T09:54:40;100403.31;;;25.58;49.56
24858;BME280;12935;50.782;6.074;2022-07-12T09:57:12;100393.16;;;25.69;48.34
24858;BME280;12935;50.782;6.074;2022-07-12T09:59:38;100413.03;;;25.80;48.35
24858;BME280;12935;50.782;6.074;2022-07-12T10:02:04;100412.41;;;26.00;48.81
24858;BME280;12935;50.782;6.074;2022-07-12T10:04:31;100411.19;;;26.16;47.68
24858;BME280;12935;50.782;6.074;2022-07-12T10:06:57;100418.06;;;26.15;47.06
24858;BME280;12935;50.782;6.074;2022-07-12T10:09:24;100403.22;;;26.24;47.54
24858;BME280;12935;50.782;6.074;2022-07-12T10:11:50;100405.91;;;26.42;47.65
24858;BME280;12935;50.782;6.074;2022-07-12T10:14:16;100408.03;;;26.62;46.75
24858;BME280;12935;50.782;6.074;2022-07-12T10:16:44;100412.69;;;26.79;46.85
24858;BME280;12935;50.782;6.074;2022-07-12T10:19:24;100404.38;;;27.14;48.35
24858;BME280;12935;50.782;6.074;2022-07-12T10:21:50;100409.59;;;27.21;45.18
24858;BME280;12935;50.782;6.074;2022-07-12T10:29:44;100405.72;;;28.09;45.12
24858;BME280;12935;50.782;6.074;2022-07-12T10:32:24;100412.19;;;28.36;43.12
24858;BME280;12935;50.782;6.074;2022-07-12T10:34:58;100415.22;;;28.32;44.14
24858;BME280;12935;50.782;6.074;2022-07-12T10:37:24;100404.53;;;28.62;42.54
24858;BME280;12935;50.782;6.074;2022-07-12T10:40:12;100403.03;;;28.67;41.62
24858;BME280;12935;50.782;6.074;2022-07-12T10:42:38;100406.75;;;28.78;41.27
24858;BME280;12935;50.782;6.074;2022-07-12T10:45:16;100397.72;;;28.94;40.94
24858;BME280;12935;50.782;6.074;2022-07-12T10:47:58;100396.78;;;29.09;40.95
24858;BME280;12935;50.782;6.074;2022-07-12T10:50:54;100387.53;;;29.03;41.23
24858;BME280;12935;50.782;6.074;2022-07-12T10:53:26;100389.53;;;29.33;40.69
24858;BME280;12935;50.782;6.074;2022-07-12T10:56:23;100391.81;;;29.66;42.02
24858;BME280;12935;50.782;6.074;2022-07-12T10:58:59;100388.91;;;29.98;37.83
24858;BME280;12935;50.782;6.074;2022-07-12T11:01:26;100382.56;;;30.14;39.25
24858;BME280;12935;50.782;6.074;2022-07-12T11:03:57;100382.03;;;30.10;37.61
24858;BME280;12935;50.782;6.074;2022-07-12T11:06:28;100384.91;;;30.21;38.17
24858;BME280;12935;50.782;6.074;2022-07-12T11:08:57;100382.44;;;30.68;37.87
24858;BME280;12935;50.782;6.074;2022-07-12T11:11:29;100378.59;;;30.93;37.81
24858;BME280;12935;50.782;6.074;2022-07-12T11:13:55;100382.22;;;31.11;36.69
24858;BME280;12935;50.782;6.074;2022-07-12T11:16:21;100380.63;;;31.37;36.11
24858;BME280;12935;50.782;6.074;2022-07-12T11:18:47;100379.34;;;31.38;36.61
24858;BME280;12935;50.782;6.074;2022-07-12T11:21:13;100380.59;;;31.60;38.25
24858;BME280;12935;50.782;6.074;2022-07-12T11:23:39;100377.66;;;31.93;34.15
24858;BME280;12935;50.782;6.074;2022-07-12T11:26:06;100364.81;;;31.92;34.00
24858;BME280;12935;50.782;6.074;2022-07-12T11:28:32;100363.91;;;32.20;34.74
24858;BME280;12935;50.782;6.074;2022-07-12T11:31:17;100364.72;;;32.56;32.54
24858;BME280;12935;50.782;6.074;2022-07-12T11:33:48;100364.75;;;32.50;32.71
24858;BME280;12935;50.782;6.074;2022-07-12T11:36:16;100361.88;;;32.56;31.45
24858;BME280;12935;50.782;6.074;2022-07-12T11:38:43;100359.25;;;32.63;30.29
24858;BME280;12935;50.782;6.074;2022-07-12T11:41:10;100368.22;;;32.67;31.86
24858;BME280;12935;50.782;6.074;2022-07-12T11:43:37;100362.56;;;33.03;32.09
24858;BME280;12935;50.782;6.074;2022-07-12T11:46:06;100364.22;;;33.41;31.41
24858;BME280;12935;50.782;6.074;2022-07-12T11:48:32;100368.06;;;33.20;28.92
24858;BME280;12935;50.782;6.074;2022-07-12T11:51:02;100362.50;;;32.79;31.16
24858;BME280;12935;50.782;6.074;2022-07-12T11:53:29;100357.56;;;33.39;31.51
24858;BME280;12935;50.782;6.074;2022-07-12T11:55:56;100356.94;;;33.70;32.34
24858;BME280;12935;50.782;6.074;2022-07-12T11:58:23;100352.09;;;33.90;31.33
24858;BME280;12935;50.782;6.074;2022-07-12T12:00:50;100352.09;;;34.08;30.64
24858;BME280;12935;50.782;6.074;2022-07-12T12:03:17;100353.47;;;34.21;31.26
24858;BME280;12935;50.782;6.074;2022-07-12T12:05:46;100344.50;;;34.17;31.27
24858;BME280;12935;50.782;6.074;2022-07-12T12:08:12;100347.25;;;34.22;29.74
24858;BME280;12935;50.782;6.074;2022-07-12T12:10:39;100350.50;;;34.13;29.95
24858;BME280;12935;50.782;6.074;2022-07-12T12:13:13;100350.47;;;34.32;29.27
24858;BME280;12935;50.782;6.074;2022-07-12T12:15:39;100339.22;;;33.89;29.68
24858;BME280;12935;50.782;6.074;2022-07-12T12:18:06;100345.50;;;33.82;30.07
24858;BME280;12935;50.782;6.074;2022-07-12T12:20:39;100338.72;;;33.41;28.32
24858;BME280;12935;50.782;6.074;2022-07-12T12:23:15;100335.78;;;33.53;28.88
24858;BME280;12935;50.782;6.074;2022-07-12T12:25:41;100339.63;;;33.74;28.89
24858;BME280;12935;50.782;6.074;2022-07-12T12:28:06;100328.44;;;33.63;28.95
24858;BME280;12935;50.782;6.074;2022-07-12T12:30:33;100324.97;;;33.94;29.27
24858;BME280;12935;50.782;6.074;2022-07-12T12:33:01;100324.84;;;33.62;29.85
24858;BME280;12935;50.782;6.074;2022-07-12T12:37:58;100329.75;;;32.89;31.89
24858;BME280;12935;50.782;6.074;2022-07-12T12:40:26;100322.34;;;33.34;31.24
24858;BME280;12935;50.782;6.074;2022-07-12T12:42:52;100323.66;;;33.76;32.08
24858;BME280;12935;50.782;6.074;2022-07-12T12:47:55;100329.78;;;33.07;31.82
24858;BME280;12935;50.782;6.074;2022-07-12T12:53:13;100314.91;;;33.31;31.80
24858;BME280;12935;50.782;6.074;2022-07-12T12:55:41;100312.38;;;33.22;30.56
24858;BME280;12935;50.782;6.074;2022-07-12T12:58:06;100316.50;;;32.67;31.23